sensor_id;sensor_type;location;lat;lon;timestamp;P1;durP1;ratioP1;P2;durP2;ratioP2
74291;SDS011;62687;55.738;37.516;2022-10-31T00:02:08;0.38;;;0.10;;
74291;SDS011;62687;55.738;37.516;2022-10-31T00:04:52;0.52;;;0.13;;
74291;SDS011;62687;55.738;37.516;2022-10-31T00:07:36;0.47;;;0.10;;
74291;SDS011;62687;55.738;37.516;2022-10-31T00:10:20;0.20;;;0.10;;
74291;SDS011;62687;55.738;37.516;2022-10-31T00:13:04;1.75;;;0.20;;
74291;SDS011;62687;55.738;37.516;2022-10-31T00:15:48;2.00;;;0.40;;
74291;SDS011;62687;55.738;37.516;2022-10-31T00:18:32;2.33;;;0.80;;
74291;SDS011;62687;55.738;37.516;2022-10-31T00:21:16;1.50;;;0.50;;
74291;SDS011;62687;55.738;37.516;2022-10-31T00:24:00;0.90;;;0.13;;
74291;SDS011;62687;55.738;37.516;2022-10-31T00:26:44;1.45;;;0.10;;
74291;SDS011;62687;55.738;37.516;2022-10-31T00:29:28;0.70;;;0.10;;
74291;SDS011;62687;55.738;37.516;2022-10-31T00:32:12;0.50;;;0.10;;
74291;SDS011;62687;55.738;37.516;2022-10-31T00:34:56;0.75;;;0.13;;
74291;SDS011;62687;55.738;37.516;2022-10-31T00:40:08;0.75;;;0.17;;
74291;SDS011;62687;55.738;37.516;2022-10-31T00:42:53;1.45;;;0.10;;
74291;SDS011;62687;55.738;37.516;2022-10-31T00:45:37;0.77;;;0.17;;
74291;SDS011;62687;55.738;37.516;2022-10-31T00:48:21;0.50;;;0.10;;
74291;SDS011;62687;55.738;37.516;2022-10-31T00:51:05;1.10;;;0.10;;
74291;SDS011;62687;55.738;37.516;2022-10-31T00:53:50;0.20;;;0.08;;
74291;SDS011;62687;55.738;37.516;2022-10-31T00:56:33;0.17;;;0.08;;
74291;SDS011;62687;55.738;37.516;2022-10-31T00:59:18;0.50;;;0.10;;
74291;SDS011;62687;55.738;37.516;2022-10-31T01:02:01;0.38;;;0.10;;
74291;SDS011;62687;55.738;37.516;2022-10-31T01:04:45;0.93;;;0.20;;
74291;SDS011;62687;55.738;37.516;2022-10-31T01:07:29;0.98;;;0.20;;
74291;SDS011;62687;55.738;37.516;2022-10-31T01:10:13;1.02;;;0.20;;
74291;SDS011;62687;55.738;37.516;2022-10-31T01:12:58;0.50;;;0.10;;
74291;SDS011;62687;55.738;37.516;2022-10-31T01:15:42;0.25;;;0.10;;
74291;SDS011;62687;55.738;37.516;2022-10-31T01:18:26;0.82;;;0.10;;
74291;SDS011;62687;55.738;37.516;2022-10-31T01:21:12;0.80;;;0.20;;
74291;SDS011;62687;55.738;37.516;2022-10-31T01:23:58;1.63;;;0.20;;
74291;SDS011;62687;55.738;37.516;2022-10-31T01:26:42;1.73;;;0.20;;
74291;SDS011;62687;55.738;37.516;2022-10-31T01:29:26;0.20;;;0.05;;
74291;SDS011;62687;55.738;37.516;2022-10-31T01:32:10;0.40;;;0.20;;
74291;SDS011;62687;55.738;37.516;2022-10-31T01:34:54;0.82;;;0.17;;
74291;SDS011;62687;55.738;37.516;2022-10-31T01:37:38;0.43;;;0.10;;
74291;SDS011;62687;55.738;37.516;2022-10-31T01:40:22;0.82;;;0.10;;
74291;SDS011;62687;55.738;37.516;2022-10-31T01:43:09;0.90;;;0.30;;
74291;SDS011;62687;55.738;37.516;2022-10-31T01:45:57;0.75;;;0.00;;
74291;SDS011;62687;55.738;37.516;2022-10-31T01:48:40;1.70;;;0.10;;
74291;SDS011;62687;55.738;37.516;2022-10-31T01:51:26;0.68;;;0.22;;
74291;SDS011;62687;55.738;37.516;2022-10-31T01:54:16;0.93;;;0.20;;
74291;SDS011;62687;55.738;37.516;2022-10-31T01:57:04;2.28;;;0.30;;
74291;SDS011;62687;55.738;37.516;2022-10-31T01:59:51;1.15;;;0.20;;
74291;SDS011;62687;55.738;37.516;2022-10-31T02:02:39;2.45;;;0.20;;
74291;SDS011;62687;55.738;37.516;2022-10-31T02:08:13;0.75;;;0.20;;
74291;SDS011;62687;55.738;37.516;2022-10-31T02:11:04;1.88;;;0.10;;
74291;SDS011;62687;55.738;37.516;2022-10-31T02:13:50;1.95;;;0.30;;
74291;SDS011;62687;55.738;37.516;2022-10-31T02:16:35;0.35;;;0.10;;
74291;SDS011;62687;55.738;37.516;2022-10-31T02:29:10;0.40;;;0.05;;
74291;SDS011;62687;55.738;37.516;2022-10-31T02:32:14;0.77;;;0.10;;
74291;SDS011;62687;55.738;37.516;2022-10-31T02:38:00;1.30;;;0.10;;
74291;SDS011;62687;55.738;37.516;2022-10-31T02:41:28;3.92;;;0.10;;
74291;SDS011;62687;55.738;37.516;2022-10-31T02:44:29;0.60;;;0.10;;
74291;SDS011;62687;55.738;37.516;2022-10-31T02:47:24;1.23;;;0.22;;
74291;SDS011;62687;55.738;37.516;2022-10-31T02:50:19;0.50;;;0.10;;
74291;SDS011;62687;55.738;37.516;2022-10-31T02:53:07;2.13;;;0.22;;
74291;SDS011;62687;55.738;37.516;2022-10-31T02:58:36;1.70;;;0.10;;
74291;SDS011;62687;55.738;37.516;2022-10-31T03:01:31;0.55;;;0.20;;
74291;SDS011;62687;55.738;37.516;2022-10-31T03:10:57;0.75;;;0.17;;
74291;SDS011;62687;55.738;37.516;2022-10-31T03:17:06;0.90;;;0.20;;
74291;SDS011;62687;55.738;37.516;2022-10-31T03:19:56;0.40;;;0.10;;
74291;SDS011;62687;55.738;37.516;2022-10-31T03:22:44;1.65;;;0.10;;
74291;SDS011;62687;55.738;37.516;2022-10-31T03:25:29;0.80;;;0.20;;
74291;SDS011;62687;55.738;37.516;2022-10-31T03:28:16;0.10;;;0.00;;
74291;SDS011;62687;55.738;37.516;2022-10-31T03:31:04;0.50;;;0.20;;
74291;SDS011;62687;55.738;37.516;2022-10-31T03:33:50;2.97;;;0.57;;
74291;SDS011;62687;55.738;37.516;2022-10-31T03:36:36;0.70;;;0.20;;
74291;SDS011;62687;55.738;37.516;2022-10-31T03:39:23;1.45;;;0.22;;
74291;SDS011;62687;55.738;37.516;2022-10-31T03:42:12;0.55;;;0.20;;
74291;SDS011;62687;55.738;37.516;2022-10-31T03:45:00;0.65;;;0.10;;
74291;SDS011;62687;55.738;37.516;2022-10-31T03:47:47;1.83;;;0.30;;
74291;SDS011;62687;55.738;37.516;2022-10-31T03:53:55;5.30;;;0.40;;
74291;SDS011;62687;55.738;37.516;2022-10-31T03:57:06;0.55;;;0.20;;
74291;SDS011;62687;55.738;37.516;2022-10-31T04:00:04;1.30;;;0.10;;
74291;SDS011;62687;55.738;37.516;2022-10-31T04:02:54;0.35;;;0.10;;
74291;SDS011;62687;55.738;37.516;2022-10-31T04:05:43;2.38;;;0.50;;
74291;SDS011;62687;55.738;37.516;2022-10-31T04:08:32;0.88;;;0.17;;
74291;SDS011;62687;55.738;37.516;2022-10-31T04:11:22;0.52;;;0.20;;
74291;SDS011;62687;55.738;37.516;2022-10-31T04:14:11;1.45;;;0.20;;
74291;SDS011;62687;55.738;37.516;2022-10-31T04:16:55;0.47;;;0.10;;
74291;SDS011;62687;55.738;37.516;2022-10-31T04:19:39;1.45;;;0.50;;
74291;SDS011;62687;55.738;37.516;2022-10-31T04:22:23;2.03;;;0.35;;
74291;SDS011;62687;55.738;37.516;2022-10-31T04:25:07;4.50;;;0.93;;
74291;SDS011;62687;55.738;37.516;2022-10-31T04:27:52;0.70;;;0.28;;
74291;SDS011;62687;55.738;37.516;2022-10-31T04:30:35;1.23;;;0.20;;
74291;SDS011;62687;55.738;37.516;2022-10-31T04:33:20;1.92;;;0.40;;
74291;SDS011;62687;55.738;37.516;2022-10-31T04:36:04;1.33;;;0.20;;
74291;SDS011;62687;55.738;37.516;2022-10-31T04:38:48;5.20;;;0.40;;
74291;SDS011;62687;55.738;37.516;2022-10-31T04:41:32;2.30;;;0.40;;
74291;SDS011;62687;55.738;37.516;2022-10-31T04:44:16;1.00;;;0.20;;
74291;SDS011;62687;55.738;37.516;2022-10-31T04:47:00;2.15;;;0.40;;
74291;SDS011;62687;55.738;37.516;2022-10-31T04:49:45;1.00;;;0.63;;
74291;SDS011;62687;55.738;37.516;2022-10-31T04:52:28;1.90;;;0.50;;
74291;SDS011;62687;55.738;37.516;2022-10-31T04:55:13;0.75;;;0.30;;
74291;SDS011;62687;55.738;37.516;2022-10-31T04:57:57;3.53;;;0.50;;
74291;SDS011;62687;55.738;37.516;2022-10-31T05:00:41;2.97;;;0.40;;
74291;SDS011;62687;55.738;37.516;2022-10-31T05:03:25;1.17;;;0.20;;
74291;SDS011;62687;55.738;37.516;2022-10-31T05:06:09;0.73;;;0.20;;
74291;SDS011;62687;55.738;37.516;2022-10-31T05:08:53;0.90;;;0.20;;
74291;SDS011;62687;55.738;37.516;2022-10-31T05:11:37;0.85;;;0.30;;
74291;SDS011;62687;55.738;37.516;2022-10-31T05:14:21;1.77;;;0.40;;
74291;SDS011;62687;55.738;37.516;2022-10-31T05:17:05;0.85;;;0.20;;
74291;SDS011;62687;55.738;37.516;2022-10-31T05:19:49;0.65;;;0.20;;
74291;SDS011;62687;55.738;37.516;2022-10-31T05:22:33;0.57;;;0.30;;
74291;SDS011;62687;55.738;37.516;2022-10-31T05:25:17;0.93;;;0.20;;
74291;SDS011;62687;55.738;37.516;2022-10-31T05:28:03;1.30;;;0.35;;
74291;SDS011;62687;55.738;37.516;2022-10-31T05:30:47;1.17;;;0.17;;
74291;SDS011;62687;55.738;37.516;2022-10-31T05:33:31;1.75;;;0.20;;
74291;SDS011;62687;55.738;37.516;2022-10-31T05:36:15;4.30;;;0.65;;
74291;SDS011;62687;55.738;37.516;2022-10-31T05:38:59;1.80;;;0.52;;
74291;SDS011;62687;55.738;37.516;2022-10-31T05:41:43;1.55;;;0.40;;
74291;SDS011;62687;55.738;37.516;2022-10-31T05:44:27;1.10;;;0.25;;
74291;SDS011;62687;55.738;37.516;2022-10-31T05:47:11;2.15;;;0.50;;
74291;SDS011;62687;55.738;37.516;2022-10-31T05:49:55;5.57;;;0.47;;
74291;SDS011;62687;55.738;37.516;2022-10-31T05:52:39;2.83;;;0.70;;
74291;SDS011;62687;55.738;37.516;2022-10-31T05:55:23;1.45;;;0.40;;
74291;SDS011;62687;55.738;37.516;2022-10-31T05:58:09;1.98;;;0.60;;
74291;SDS011;62687;55.738;37.516;2022-10-31T06:00:54;1.35;;;0.50;;
74291;SDS011;62687;55.738;37.516;2022-10-31T06:03:37;0.98;;;0.40;;
74291;SDS011;62687;55.738;37.516;2022-10-31T06:06:21;1.35;;;0.52;;
74291;SDS011;62687;55.738;37.516;2022-10-31T06:09:05;0.98;;;0.32;;
74291;SDS011;62687;55.738;37.516;2022-10-31T06:11:49;1.33;;;0.20;;
74291;SDS011;62687;55.738;37.516;2022-10-31T06:14:33;1.90;;;0.40;;
74291;SDS011;62687;55.738;37.516;2022-10-31T06:17:17;3.35;;;0.28;;
74291;SDS011;62687;55.738;37.516;2022-10-31T06:20:02;4.60;;;0.50;;
74291;SDS011;62687;55.738;37.516;2022-10-31T06:22:47;1.92;;;0.30;;
74291;SDS011;62687;55.738;37.516;2022-10-31T06:25:31;1.92;;;0.30;;
74291;SDS011;62687;55.738;37.516;2022-10-31T06:28:15;0.68;;;0.25;;
74291;SDS011;62687;55.738;37.516;2022-10-31T06:30:58;1.90;;;0.60;;
74291;SDS011;62687;55.738;37.516;2022-10-31T06:33:42;2.25;;;0.52;;
74291;SDS011;62687;55.738;37.516;2022-10-31T06:36:26;3.80;;;0.30;;
74291;SDS011;62687;55.738;37.516;2022-10-31T06:39:10;1.15;;;0.38;;
74291;SDS011;62687;55.738;37.516;2022-10-31T06:41:54;2.88;;;0.30;;
74291;SDS011;62687;55.738;37.516;2022-10-31T06:44:38;3.80;;;0.43;;
74291;SDS011;62687;55.738;37.516;2022-10-31T06:47:22;3.70;;;0.65;;
74291;SDS011;62687;55.738;37.516;2022-10-31T06:50:06;2.45;;;0.40;;
74291;SDS011;62687;55.738;37.516;2022-10-31T06:52:51;2.75;;;0.70;;
74291;SDS011;62687;55.738;37.516;2022-10-31T06:55:39;3.88;;;0.50;;
74291;SDS011;62687;55.738;37.516;2022-10-31T06:58:24;2.53;;;0.90;;
74291;SDS011;62687;55.738;37.516;2022-10-31T07:01:08;1.45;;;0.60;;
74291;SDS011;62687;55.738;37.516;2022-10-31T07:03:52;3.05;;;0.82;;
74291;SDS011;62687;55.738;37.516;2022-10-31T07:06:36;0.70;;;0.30;;
74291;SDS011;62687;55.738;37.516;2022-10-31T07:09:21;1.10;;;0.32;;
74291;SDS011;62687;55.738;37.516;2022-10-31T07:12:05;4.30;;;0.50;;
74291;SDS011;62687;55.738;37.516;2022-10-31T07:14:49;2.55;;;1.10;;
74291;SDS011;62687;55.738;37.516;2022-10-31T07:17:33;1.33;;;0.47;;
74291;SDS011;62687;55.738;37.516;2022-10-31T07:20:17;5.15;;;1.00;;
74291;SDS011;62687;55.738;37.516;2022-10-31T07:23:01;5.25;;;1.77;;
74291;SDS011;62687;55.738;37.516;2022-10-31T07:25:45;6.18;;;2.28;;
74291;SDS011;62687;55.738;37.516;2022-10-31T07:28:29;2.65;;;1.00;;
74291;SDS011;62687;55.738;37.516;2022-10-31T07:31:13;5.20;;;2.00;;
74291;SDS011;62687;55.738;37.516;2022-10-31T07:33:57;7.25;;;0.90;;
74291;SDS011;62687;55.738;37.516;2022-10-31T07:36:41;5.05;;;0.77;;
74291;SDS011;62687;55.738;37.516;2022-10-31T07:39:25;3.72;;;1.25;;
74291;SDS011;62687;55.738;37.516;2022-10-31T07:42:09;3.15;;;0.85;;
74291;SDS011;62687;55.738;37.516;2022-10-31T07:44:53;6.80;;;1.10;;
74291;SDS011;62687;55.738;37.516;2022-10-31T07:47:47;2.83;;;1.00;;
74291;SDS011;62687;55.738;37.516;2022-10-31T07:50:32;2.45;;;0.80;;
74291;SDS011;62687;55.738;37.516;2022-10-31T07:53:20;4.95;;;1.10;;
74291;SDS011;62687;55.738;37.516;2022-10-31T07:56:04;2.95;;;0.80;;
74291;SDS011;62687;55.738;37.516;2022-10-31T07:58:49;2.08;;;1.05;;
74291;SDS011;62687;55.738;37.516;2022-10-31T08:01:32;2.28;;;0.73;;
74291;SDS011;62687;55.738;37.516;2022-10-31T08:04:16;3.72;;;1.08;;
74291;SDS011;62687;55.738;37.516;2022-10-31T08:07:00;1.88;;;0.60;;
74291;SDS011;62687;55.738;37.516;2022-10-31T08:09:44;3.40;;;1.02;;
74291;SDS011;62687;55.738;37.516;2022-10-31T08:12:28;0.98;;;0.25;;
74291;SDS011;62687;55.738;37.516;2022-10-31T08:15:12;1.65;;;0.60;;
74291;SDS011;62687;55.738;37.516;2022-10-31T08:17:57;4.07;;;1.05;;
74291;SDS011;62687;55.738;37.516;2022-10-31T08:20:42;2.33;;;0.93;;
74291;SDS011;62687;55.738;37.516;2022-10-31T08:26:11;2.42;;;0.38;;
74291;SDS011;62687;55.738;37.516;2022-10-31T08:28:55;4.68;;;1.00;;
74291;SDS011;62687;55.738;37.516;2022-10-31T08:31:39;1.73;;;0.57;;
74291;SDS011;62687;55.738;37.516;2022-10-31T08:34:23;2.05;;;0.95;;
74291;SDS011;62687;55.738;37.516;2022-10-31T08:37:08;1.80;;;0.90;;
74291;SDS011;62687;55.738;37.516;2022-10-31T08:39:51;3.92;;;0.57;;
74291;SDS011;62687;55.738;37.516;2022-10-31T08:42:35;3.72;;;1.10;;
74291;SDS011;62687;55.738;37.516;2022-10-31T08:45:19;5.28;;;1.08;;
74291;SDS011;62687;55.738;37.516;2022-10-31T08:48:04;5.47;;;1.10;;
74291;SDS011;62687;55.738;37.516;2022-10-31T08:50:51;1.83;;;0.82;;
74291;SDS011;62687;55.738;37.516;2022-10-31T08:53:41;2.45;;;0.95;;
74291;SDS011;62687;55.738;37.516;2022-10-31T08:56:25;1.83;;;0.88;;
74291;SDS011;62687;55.738;37.516;2022-10-31T08:59:09;2.38;;;1.00;;
74291;SDS011;62687;55.738;37.516;2022-10-31T09:01:53;3.33;;;1.20;;
74291;SDS011;62687;55.738;37.516;2022-10-31T09:04:37;4.85;;;1.10;;
74291;SDS011;62687;55.738;37.516;2022-10-31T09:07:21;4.60;;;1.25;;
74291;SDS011;62687;55.738;37.516;2022-10-31T09:10:05;2.95;;;1.13;;
74291;SDS011;62687;55.738;37.516;2022-10-31T09:13:03;2.78;;;0.93;;
74291;SDS011;62687;55.738;37.516;2022-10-31T09:15:53;2.30;;;0.88;;
74291;SDS011;62687;55.738;37.516;2022-10-31T09:18:37;5.13;;;1.17;;
74291;SDS011;62687;55.738;37.516;2022-10-31T09:21:21;5.05;;;1.30;;
74291;SDS011;62687;55.738;37.516;2022-10-31T09:24:05;3.22;;;1.42;;
74291;SDS011;62687;55.738;37.516;2022-10-31T09:26:49;4.00;;;1.30;;
74291;SDS011;62687;55.738;37.516;2022-10-31T09:29:33;3.35;;;1.17;;
74291;SDS011;62687;55.738;37.516;2022-10-31T09:32:17;2.15;;;0.98;;
74291;SDS011;62687;55.738;37.516;2022-10-31T09:35:01;3.72;;;1.30;;
74291;SDS011;62687;55.738;37.516;2022-10-31T09:37:45;2.75;;;1.20;;
74291;SDS011;62687;55.738;37.516;2022-10-31T09:40:32;2.45;;;0.90;;
74291;SDS011;62687;55.738;37.516;2022-10-31T09:52:29;1.48;;;0.70;;
74291;SDS011;62687;55.738;37.516;2022-10-31T09:55:17;1.65;;;0.73;;
74291;SDS011;62687;55.738;37.516;2022-10-31T09:58:09;1.30;;;0.40;;
74291;SDS011;62687;55.738;37.516;2022-10-31T10:01:00;0.68;;;0.30;;
74291;SDS011;62687;55.738;37.516;2022-10-31T10:03:47;1.98;;;0.40;;
74291;SDS011;62687;55.738;37.516;2022-10-31T10:06:37;1.77;;;0.47;;
74291;SDS011;62687;55.738;37.516;2022-10-31T10:12:16;0.82;;;0.30;;
74291;SDS011;62687;55.738;37.516;2022-10-31T10:18:42;2.40;;;0.70;;
74291;SDS011;62687;55.738;37.516;2022-10-31T10:21:50;1.92;;;0.80;;
74291;SDS011;62687;55.738;37.516;2022-10-31T10:25:28;1.30;;;0.50;;
74291;SDS011;62687;55.738;37.516;2022-10-31T10:28:16;1.10;;;0.40;;
74291;SDS011;62687;55.738;37.516;2022-10-31T10:31:17;1.00;;;0.40;;
74291;SDS011;62687;55.738;37.516;2022-10-31T10:34:20;1.38;;;0.50;;
74291;SDS011;62687;55.738;37.516;2022-10-31T10:37:19;2.20;;;0.60;;
74291;SDS011;62687;55.738;37.516;2022-10-31T10:40:13;1.10;;;0.30;;
74291;SDS011;62687;55.738;37.516;2022-10-31T10:43:09;0.50;;;0.20;;
74291;SDS011;62687;55.738;37.516;2022-10-31T10:58:13;2.05;;;0.70;;
74291;SDS011;62687;55.738;37.516;2022-10-31T11:00:57;0.93;;;0.30;;
74291;SDS011;62687;55.738;37.516;2022-10-31T11:03:41;1.02;;;0.20;;
74291;SDS011;62687;55.738;37.516;2022-10-31T11:06:25;1.08;;;0.32;;
74291;SDS011;62687;55.738;37.516;2022-10-31T11:09:09;0.80;;;0.20;;
74291;SDS011;62687;55.738;37.516;2022-10-31T11:14:51;1.27;;;0.35;;
74291;SDS011;62687;55.738;37.516;2022-10-31T11:17:39;1.58;;;0.63;;
74291;SDS011;62687;55.738;37.516;2022-10-31T11:20:34;3.95;;;1.40;;
74291;SDS011;62687;55.738;37.516;2022-10-31T11:23:20;6.18;;;0.50;;
74291;SDS011;62687;55.738;37.516;2022-10-31T11:26:15;1.80;;;0.52;;
74291;SDS011;62687;55.738;37.516;2022-10-31T11:29:03;1.10;;;0.45;;
74291;SDS011;62687;55.738;37.516;2022-10-31T11:31:53;0.63;;;0.22;;
74291;SDS011;62687;55.738;37.516;2022-10-31T11:34:42;1.55;;;0.60;;
74291;SDS011;62687;55.738;37.516;2022-10-31T11:37:30;0.40;;;0.20;;
74291;SDS011;62687;55.738;37.516;2022-10-31T11:40:26;0.65;;;0.20;;
74291;SDS011;62687;55.738;37.516;2022-10-31T11:43:15;1.13;;;0.28;;
74291;SDS011;62687;55.738;37.516;2022-10-31T11:46:08;0.50;;;0.20;;
74291;SDS011;62687;55.738;37.516;2022-10-31T11:51:43;0.90;;;0.25;;
74291;SDS011;62687;55.738;37.516;2022-10-31T11:54:33;2.38;;;0.22;;
74291;SDS011;62687;55.738;37.516;2022-10-31T11:57:43;2.40;;;0.40;;
74291;SDS011;62687;55.738;37.516;2022-10-31T12:00:38;2.05;;;0.75;;
74291;SDS011;62687;55.738;37.516;2022-10-31T12:03:42;1.30;;;0.47;;
74291;SDS011;62687;55.738;37.516;2022-10-31T12:06:36;7.30;;;2.17;;
74291;SDS011;62687;55.738;37.516;2022-10-31T12:09:29;5.63;;;0.57;;
74291;SDS011;62687;55.738;37.516;2022-10-31T12:12:21;4.60;;;0.52;;
74291;SDS011;62687;55.738;37.516;2022-10-31T12:21:49;1.10;;;0.40;;
74291;SDS011;62687;55.738;37.516;2022-10-31T12:27:50;1.67;;;0.60;;
74291;SDS011;62687;55.738;37.516;2022-10-31T12:30:48;1.33;;;0.47;;
74291;SDS011;62687;55.738;37.516;2022-10-31T12:48:33;1.20;;;0.50;;
74291;SDS011;62687;55.738;37.516;2022-10-31T12:51:43;2.08;;;0.60;;
74291;SDS011;62687;55.738;37.516;2022-10-31T12:57:45;1.23;;;0.40;;
74291;SDS011;62687;55.738;37.516;2022-10-31T13:00:34;2.67;;;0.70;;
74291;SDS011;62687;55.738;37.516;2022-10-31T13:03:31;4.50;;;1.38;;
74291;SDS011;62687;55.738;37.516;2022-10-31T13:06:24;1.15;;;0.55;;
74291;SDS011;62687;55.738;37.516;2022-10-31T13:09:18;2.10;;;0.80;;
74291;SDS011;62687;55.738;37.516;2022-10-31T13:12:08;1.52;;;0.63;;
74291;SDS011;62687;55.738;37.516;2022-10-31T13:14:57;1.33;;;0.32;;
74291;SDS011;62687;55.738;37.516;2022-10-31T13:17:54;1.20;;;0.47;;
74291;SDS011;62687;55.738;37.516;2022-10-31T13:20:42;2.80;;;0.60;;
74291;SDS011;62687;55.738;37.516;2022-10-31T13:23:30;2.70;;;0.77;;
74291;SDS011;62687;55.738;37.516;2022-10-31T13:26:31;2.80;;;0.70;;
74291;SDS011;62687;55.738;37.516;2022-10-31T13:29:33;0.80;;;0.20;;
74291;SDS011;62687;55.738;37.516;2022-10-31T13:35:41;2.15;;;0.68;;
74291;SDS011;62687;55.738;37.516;2022-10-31T13:44:46;3.70;;;0.50;;
74291;SDS011;62687;55.738;37.516;2022-10-31T13:47:30;0.60;;;0.30;;
74291;SDS011;62687;55.738;37.516;2022-10-31T13:50:24;2.08;;;0.60;;
74291;SDS011;62687;55.738;37.516;2022-10-31T13:56:18;2.03;;;0.57;;
74291;SDS011;62687;55.738;37.516;2022-10-31T13:59:19;3.40;;;0.60;;
74291;SDS011;62687;55.738;37.516;2022-10-31T14:02:14;2.42;;;0.70;;
74291;SDS011;62687;55.738;37.516;2022-10-31T14:05:02;1.60;;;0.60;;
74291;SDS011;62687;55.738;37.516;2022-10-31T14:07:49;0.93;;;0.20;;
74291;SDS011;62687;55.738;37.516;2022-10-31T14:10:38;1.45;;;0.47;;
74291;SDS011;62687;55.738;37.516;2022-10-31T14:16:27;2.38;;;0.35;;
74291;SDS011;62687;55.738;37.516;2022-10-31T14:19:15;0.85;;;0.40;;
74291;SDS011;62687;55.738;37.516;2022-10-31T14:22:02;1.42;;;0.80;;
74291;SDS011;62687;55.738;37.516;2022-10-31T14:24:46;2.38;;;0.50;;
74291;SDS011;62687;55.738;37.516;2022-10-31T14:27:32;0.68;;;0.30;;
74291;SDS011;62687;55.738;37.516;2022-10-31T14:30:20;2.05;;;0.70;;
74291;SDS011;62687;55.738;37.516;2022-10-31T14:33:13;7.95;;;0.45;;
74291;SDS011;62687;55.738;37.516;2022-10-31T14:36:11;1.10;;;0.40;;
74291;SDS011;62687;55.738;37.516;2022-10-31T14:45:36;1.33;;;0.43;;
74291;SDS011;62687;55.738;37.516;2022-10-31T14:51:38;2.78;;;0.57;;
74291;SDS011;62687;55.738;37.516;2022-10-31T14:54:28;0.90;;;0.30;;
74291;SDS011;62687;55.738;37.516;2022-10-31T14:57:20;2.55;;;0.63;;
74291;SDS011;62687;55.738;37.516;2022-10-31T15:00:12;0.65;;;0.30;;
74291;SDS011;62687;55.738;37.516;2022-10-31T15:06:13;2.97;;;0.52;;
74291;SDS011;62687;55.738;37.516;2022-10-31T15:08:59;2.42;;;0.70;;
74291;SDS011;62687;55.738;37.516;2022-10-31T15:11:43;2.28;;;1.00;;
74291;SDS011;62687;55.738;37.516;2022-10-31T15:14:28;0.95;;;0.40;;
74291;SDS011;62687;55.738;37.516;2022-10-31T15:17:14;3.03;;;1.17;;
74291;SDS011;62687;55.738;37.516;2022-10-31T15:19:59;2.58;;;0.40;;
74291;SDS011;62687;55.738;37.516;2022-10-31T15:22:44;1.55;;;0.38;;
74291;SDS011;62687;55.738;37.516;2022-10-31T15:25:31;1.13;;;0.30;;
74291;SDS011;62687;55.738;37.516;2022-10-31T15:28:22;1.98;;;0.70;;
74291;SDS011;62687;55.738;37.516;2022-10-31T15:31:13;2.63;;;0.70;;
74291;SDS011;62687;55.738;37.516;2022-10-31T15:34:01;1.38;;;0.52;;
74291;SDS011;62687;55.738;37.516;2022-10-31T15:36:59;1.65;;;0.50;;
74291;SDS011;62687;55.738;37.516;2022-10-31T15:39:44;1.30;;;0.40;;
74291;SDS011;62687;55.738;37.516;2022-10-31T15:42:33;1.75;;;0.68;;
74291;SDS011;62687;55.738;37.516;2022-10-31T15:45:25;1.02;;;0.32;;
74291;SDS011;62687;55.738;37.516;2022-10-31T15:48:17;4.30;;;0.90;;
74291;SDS011;62687;55.738;37.516;2022-10-31T15:51:05;1.52;;;0.73;;
74291;SDS011;62687;55.738;37.516;2022-10-31T15:53:50;0.88;;;0.35;;
74291;SDS011;62687;55.738;37.516;2022-10-31T15:56:36;1.75;;;0.60;;
74291;SDS011;62687;55.738;37.516;2022-10-31T15:59:21;1.45;;;0.57;;
74291;SDS011;62687;55.738;37.516;2022-10-31T16:02:10;3.65;;;1.30;;
74291;SDS011;62687;55.738;37.516;2022-10-31T16:04:57;0.80;;;0.40;;
74291;SDS011;62687;55.738;37.516;2022-10-31T16:07:50;1.50;;;0.50;;
74291;SDS011;62687;55.738;37.516;2022-10-31T16:10:35;1.38;;;0.60;;
74291;SDS011;62687;55.738;37.516;2022-10-31T16:13:28;1.67;;;0.60;;
74291;SDS011;62687;55.738;37.516;2022-10-31T16:16:15;0.75;;;0.20;;
74291;SDS011;62687;55.738;37.516;2022-10-31T16:19:01;1.52;;;0.50;;
74291;SDS011;62687;55.738;37.516;2022-10-31T16:21:48;1.92;;;0.70;;
74291;SDS011;62687;55.738;37.516;2022-10-31T16:27:31;1.65;;;0.60;;
74291;SDS011;62687;55.738;37.516;2022-10-31T16:33:33;3.00;;;0.60;;
74291;SDS011;62687;55.738;37.516;2022-10-31T16:39:11;1.65;;;0.50;;
74291;SDS011;62687;55.738;37.516;2022-10-31T16:41:57;2.83;;;0.75;;
74291;SDS011;62687;55.738;37.516;2022-10-31T16:44:41;0.77;;;0.22;;
74291;SDS011;62687;55.738;37.516;2022-10-31T16:47:28;0.98;;;0.38;;
74291;SDS011;62687;55.738;37.516;2022-10-31T16:50:14;1.08;;;0.50;;
74291;SDS011;62687;55.738;37.516;2022-10-31T16:53:03;1.30;;;0.55;;
74291;SDS011;62687;55.738;37.516;2022-10-31T16:55:57;0.88;;;0.20;;
74291;SDS011;62687;55.738;37.516;2022-10-31T16:58:42;2.17;;;0.73;;
74291;SDS011;62687;55.738;37.516;2022-10-31T17:01:27;0.90;;;0.20;;
74291;SDS011;62687;55.738;37.516;2022-10-31T17:04:13;1.45;;;0.43;;
74291;SDS011;62687;55.738;37.516;2022-10-31T17:06:58;3.72;;;0.65;;
74291;SDS011;62687;55.738;37.516;2022-10-31T17:09:42;2.20;;;0.60;;
74291;SDS011;62687;55.738;37.516;2022-10-31T17:12:26;3.22;;;0.93;;
74291;SDS011;62687;55.738;37.516;2022-10-31T17:15:20;1.45;;;0.30;;
74291;SDS011;62687;55.738;37.516;2022-10-31T17:18:07;1.42;;;0.43;;
74291;SDS011;62687;55.738;37.516;2022-10-31T17:21:05;3.42;;;0.77;;
74291;SDS011;62687;55.738;37.516;2022-10-31T17:23:49;1.80;;;0.47;;
74291;SDS011;62687;55.738;37.516;2022-10-31T17:26:34;3.95;;;0.40;;
74291;SDS011;62687;55.738;37.516;2022-10-31T17:29:18;3.60;;;0.50;;
74291;SDS011;62687;55.738;37.516;2022-10-31T17:32:01;1.73;;;0.60;;
74291;SDS011;62687;55.738;37.516;2022-10-31T17:34:46;1.77;;;0.57;;
74291;SDS011;62687;55.738;37.516;2022-10-31T17:37:30;1.25;;;0.38;;
74291;SDS011;62687;55.738;37.516;2022-10-31T17:40:18;6.95;;;0.63;;
74291;SDS011;62687;55.738;37.516;2022-10-31T17:43:04;1.40;;;0.40;;
74291;SDS011;62687;55.738;37.516;2022-10-31T17:45:49;3.40;;;0.50;;
74291;SDS011;62687;55.738;37.516;2022-10-31T17:48:33;1.33;;;0.13;;
74291;SDS011;62687;55.738;37.516;2022-10-31T17:51:18;1.40;;;0.40;;
74291;SDS011;62687;55.738;37.516;2022-10-31T17:54:02;1.10;;;0.50;;
74291;SDS011;62687;55.738;37.516;2022-10-31T17:56:48;2.55;;;0.45;;
74291;SDS011;62687;55.738;37.516;2022-10-31T17:59:32;0.82;;;0.30;;
74291;SDS011;62687;55.738;37.516;2022-10-31T18:02:16;1.05;;;0.35;;
74291;SDS011;62687;55.738;37.516;2022-10-31T18:05:00;1.65;;;0.40;;
74291;SDS011;62687;55.738;37.516;2022-10-31T18:07:47;2.65;;;0.60;;
74291;SDS011;62687;55.738;37.516;2022-10-31T18:10:32;0.95;;;0.30;;
74291;SDS011;62687;55.738;37.516;2022-10-31T18:13:16;1.27;;;0.45;;
74291;SDS011;62687;55.738;37.516;2022-10-31T18:16:05;2.70;;;1.00;;
74291;SDS011;62687;55.738;37.516;2022-10-31T18:18:55;1.10;;;0.40;;
74291;SDS011;62687;55.738;37.516;2022-10-31T18:21:44;1.08;;;0.30;;
74291;SDS011;62687;55.738;37.516;2022-10-31T18:24:29;2.13;;;0.50;;
74291;SDS011;62687;55.738;37.516;2022-10-31T18:27:14;2.08;;;0.25;;
74291;SDS011;62687;55.738;37.516;2022-10-31T18:29:58;1.63;;;0.50;;
74291;SDS011;62687;55.738;37.516;2022-10-31T18:32:42;1.50;;;0.60;;
74291;SDS011;62687;55.738;37.516;2022-10-31T18:35:26;1.02;;;0.40;;
74291;SDS011;62687;55.738;37.516;2022-10-31T18:38:10;2.42;;;0.98;;
74291;SDS011;62687;55.738;37.516;2022-10-31T18:40:54;4.00;;;0.95;;
74291;SDS011;62687;55.738;37.516;2022-10-31T18:43:38;3.47;;;1.00;;
74291;SDS011;62687;55.738;37.516;2022-10-31T18:46:23;1.17;;;0.80;;
74291;SDS011;62687;55.738;37.516;2022-10-31T18:49:07;2.55;;;1.33;;